Tiempo atmosférico en la estación meteorológica de Tenerife Norte Aeropuerto, Santa Cruz de Tenerife (632 m.)



Fecha
DESCASC
Temp. máxima en grados centígrados (hora)
DESCASC
Temp. mínima en grados centígrados (hora)
DESCASC
Temp. media en grados centígrados
DESCASC
Racha de viento máxima en m/sg (hora)
DESCASC
Velocidad máxima media en intervalos de 10 minutos(hora)
DESCASC
Precipitaciones diarias en mm
DESCASC
Precipitaciones de 00:00 a 06:00 en mm
DESCASC
Precipitaciones de 06:00 a 12:00 en mm
DESCASC
Precipitaciones de 12:00 a 18:00 en mm
DESCASC
Precipitaciones de 18:00 a 24:00 en mm
DESCASC
23-06-2019 25.1 (15:50) 14.5 (04:40) 19.8 9.72 (17:00) 7.22 (00:10) 0 0 0 0 0
22-06-2019 22.6 (13:40) 14.2 (07:00) 18.4 13.89 (05:10) 9.44 (02:20) 0 0 0 0 0
21-06-2019 21.8 (15:10) 15.5 (07:00) 18.6 13.89 (18:10) 10.28 (20:30) 0.6 0 0.6 0 0
20-06-2019 22.3 (14:20) 15.4 (00:00) 18.8 13.33 (17:30) 10 (20:30) 0 0 0 0 0
19-06-2019 22.9 (13:00) 14.1 (00:00) 18.5 10.28 (23:59) 7.5 (23:59) 0 0 0 0 0
18-06-2019 23.2 (13:00) 15.1 (00:00) 19.2 8.33 (10:50) 5.83 (11:00) 0 0 0 0 0
17-06-2019 24.2 (16:00) 11.6 (00:00) 17.9 10.28 (17:20) 5 (09:40) 0 0 0 0 0
16-06-2019 20.6 (14:40) 10.8 (00:00) 15.7 7.22 (13:00) 4.44 (15:00) 0 0 0 0 0
15-06-2019 19.5 (14:20) 11.6 (00:00) 15.6 7.78 (11:20) 4.72 (11:40) 0 0 0 0 0
14-06-2019 20.4 (18:30) 12.4 (00:00) 16.4 10.83 (18:20) 5 (13:40) 0 0 0 0 0
13-06-2019 19.6 (16:30) 13.5 (00:00) 16.6 16.39 (01:20) 10.83 (01:20) -- -- -- -- --
12-06-2019 19.2 (16:10) 14.2 (00:00) 16.7 16.39 (17:30) 11.67 (18:10) -- -- -- -- --
11-06-2019 16.9 (14:40) 13.8 (00:00) 15.3 16.94 (14:40) 12.22 (14:40) -- 0 -- -- --
10-06-2019 19.3 (14:30) 14 (00:00) 16.6 16.11 (16:00) 11.67 (22:40) 0 0 0 0 0
09-06-2019 20.2 (15:50) 13.4 (00:00) 16.8 14.44 (17:00) 10.83 (17:00) 0 0 0 0 0
08-06-2019 21 (13:20) 14.2 (00:00) 17.6 15.28 (16:10) 10.83 (17:00) 0 0 0 0 0
07-06-2019 19.5 (15:00) 13.7 (00:00) 16.6 13.33 (00:40) 9.72 (01:50) 0 0 0 0 0
06-06-2019 18.7 (14:20) 13.8 (00:00) 16.3 16.11 (16:20) 12.78 (18:30) 0 0 0 0 0
05-06-2019 22.2 (15:30) 15.1 (00:00) 18.7 16.11 (02:10) 10.28 (01:50) 0 0 0 0 0
04-06-2019 23.4 (16:20) 16 (00:00) 19.7 14.44 (20:30) 11.39 (21:20) 0 0 0 0 0
03-06-2019 30.6 (11:30) 21.7 (00:00) 26.2 11.67 (15:00) 7.78 (16:40) 0 0 0 0 0
02-06-2019 33 (14:40) 14.3 (00:00) 23.7 8.33 (14:00) 5 (13:50) 0 0 0 0 0
01-06-2019 23.5 (11:30) 12.8 (00:00) 18.2 11.39 (15:20) 8.61 (15:20) 0 0 0 0 0
31-05-2019 24.9 (14:10) 11.8 (00:00) 18.3 10.83 (18:10) 8.06 (20:00) 0 0 0 0 0
30-05-2019 21.8 (15:30) 12.6 (00:00) 17.2 12.5 (18:10) 9.17 (18:10) 0 0 0 0 0
29-05-2019 20.8 (16:20) 13.8 (00:00) 17.3 12.78 (00:30) 10 (00:40) 0 0 0 0 0
28-05-2019 20.1 (16:00) 14.3 (00:00) 17.2 13.33 (22:10) 10.83 (22:30) 0 0 0 0 0
27-05-2019 26.7 (12:50) 13.3 (00:00) 20 12.5 (21:50) 9.17 (22:00) 0 0 0 0 0

Gráficas

Temp. máximas Temp. mínimas Temp. medias Precipitaciones Rachas de viento máximas Velocidades máximas media en intervalos de 10 minutos

Datos horarios

Fecha y hora oficial Temperatura (ºC) Velocidad del viento (km/h) Dirección del viento Racha (km/h) Dirección de racha Precipitación (mm) Presión (hPa) Tendencia (hPa) Humedad (%)
2019-06-25 23:00:00 16.9 28 Oeste 42 Oeste 0 949.3 1.1 100
2019-06-25 22:00:00 17 31 Oeste 45 Noroeste 0 948.7 0.6 100
2019-06-25 21:00:00 17.3 34 Noroeste 42 Noroeste 0 948.2 -0.2 100
2019-06-25 20:00:00 17.9 23 Oeste 33 Oeste 0 948.2 -0.2 99
2019-06-25 19:00:00 18.4 18 Noroeste 26 Noroeste 0 948.1 -0.3 97
2019-06-25 18:00:00 19.2 19 Noroeste 28 Oeste 0 948.4 -0.1 93
2019-06-25 17:00:00 19.7 19 Oeste 28 Oeste 0 948.4 -0.3 90
2019-06-25 16:00:00 18.6 16 Noroeste 24 Noroeste 0 948.4 -0.3 96
2019-06-25 15:00:00 20.1 15 Oeste 22 Oeste 0 948.5 0 91
2019-06-25 14:00:00 18.7 15 Oeste 22 Oeste 0 948.7 0.7 99
2019-06-25 13:00:00 18.5 13 Noroeste 18 Noroeste 0 948.7 0.9 100
2019-06-25 12:00:00 18.5 15 Noroeste 28 Oeste 0 948.5 1.2 100
2019-06-25 11:00:00 18.5 18 Oeste 26 Oeste 0 948 1.1 100
2019-06-25 10:00:00 18.7 17 Noroeste 28 Noroeste 0 947.8 1.3 100
2019-06-25 09:00:00 18.4 19 Oeste 28 Oeste 0.2 947.3 0.8 100
2019-06-25 08:00:00 18.2 17 Oeste 26 Oeste 0.4 946.9 0.4 100
2019-06-25 07:00:00 18.1 15 Oeste 21 Oeste 0.3 946.5 -0.1 100
2019-06-25 06:00:00 18.5 11 Oeste 18 Oeste 0 946.5 -0.5 99
2019-06-25 05:00:00 18.6 13 Oeste 24 Oeste 0 946.5 -0.9 99
2019-06-25 04:00:00 18.4 18 Oeste 22 Oeste 0 946.6 -1.2 98
2019-06-25 03:00:00 18.8 11 Oeste 18 Oeste 0 947 -0.9 95
2019-06-25 02:00:00 18 12 Oeste 26 Oeste 0 947.4 -0.3 97
2019-06-25 01:00:00 18.2 13 Oeste 21 Oeste 0 947.8 0.3 95
2019-06-25 00:00:00 18.4 18 Oeste 24 Oeste 0 947.9 0.7 94
2019-06-24 23:00:00 18.4 18 Oeste 26 Oeste 0 947.7 0.8 95
2019-06-24 22:00:00 18.8 12 Oeste 17 Oeste 0 947.5 0.8 93
2019-06-24 21:00:00 19.5 12 Oeste 22 Oeste 0 947.2 0.7 86
2019-06-24 20:00:00 21.7 13 Oeste 21 Oeste 0 946.9 0.2 81
2019-06-24 19:00:00 22.5 6 Nordeste 17 Norte 0 946.7 -0.1 82
2019-06-24 18:00:00 23.8 13 Noroeste 28 Norte 0 946.5 -0.3 71
2019-06-24 17:00:00 22.4 5 Este 26 Este 0 946.7 -0.3 82
2019-06-24 16:00:00 21.9 10 Sudeste 28 Este 0 946.8 -0.1 85
2019-06-24 15:00:00 22.5 10 Este 22 Este 0 946.8 -0.1 79
2019-06-24 14:00:00 22.4 9 Este 28 Este 0 947 0.2 78
2019-06-24 13:00:00 23.3 12 Este 24 Este 0 946.9 0.2 71
2019-06-24 12:00:00 22.6 15 Este 28 Este 0 946.9 0.4 72
2019-06-24 11:00:00 22.2 12 Este 21 Este 0 946.8 0.6 71
2019-06-24 10:00:00 21.7 9 Este 13 Nordeste 0 946.7 0.9 72
2019-06-24 09:00:00 20.5 4 Nordeste 13 Sudeste 0 946.5 0.6 76
2019-06-24 08:00:00 17.1 3 Sudoeste 11 Oeste 0 946.2 0.3 96
2019-06-24 07:00:00 16.3 8 Oeste 11 Oeste 0 945.8 -0.2 95
2019-06-24 06:00:00 17 8 Sudoeste 13 Oeste 0 945.9 -0.5 93
2019-06-24 05:00:00 17.1 9 Oeste 15 Oeste 0 945.9 -1.2 92
2019-06-24 04:00:00 17 13 Oeste 22 Oeste 0 946 -1.6 93
2019-06-24 03:00:00 17.5 18 Oeste 24 Oeste 0 946.4 -1.2 92
2019-06-24 02:00:00 16.9 9 Oeste 15 Oeste 0 947.1 -0.2 90
2019-06-24 01:00:00 17.9 7 Oeste 15 Oeste 0 947.6 0.7 87
2019-06-24 00:00:00 18.3 12 Oeste 28 Oeste 0 947.6 1.2 87
2019-06-23 23:00:00 18.6 22 Oeste 30 Oeste 0 947.3 1.2 85
2019-06-23 22:00:00 18.9 18 Oeste 26 Oeste 0 946.9 0.9 81
2019-06-23 21:00:00 20 18 Noroeste 26 Noroeste 0 946.4 0.1 76
2019-06-23 20:00:00 21.6 14 Noroeste 30 Noroeste 0 946.1 -0.4 69
2019-06-23 19:00:00 23.1 17 Oeste 35 Noroeste 0 946 -0.9 62
2019-06-23 18:00:00 23.2 22 Oeste 35 Noroeste 0 946.3 -0.9 60
2019-06-23 17:00:00 23.8 21 Oeste 35 Oeste 0 946.5 -1.1 58
2019-06-23 16:00:00 24.6 18 Noroeste 28 Noroeste 0 946.9 -0.7 57
2019-06-23 15:00:00 22.2 10 Este 22 Norte 0 947.2 -0.3 70
2019-06-23 14:00:00 23.8 15 Noroeste 30 Noroeste 0 947.6 0.4 57
2019-06-23 13:00:00 22.8 16 Noroeste 30 Norte 0 947.6 0.3 60
2019-06-23 12:00:00 22.8 18 Norte 28 Noroeste 0 947.5 0.4 60
2019-06-23 11:00:00 21.7 19 Noroeste 28 Noroeste 0 947.2 0.5 64
2019-06-23 10:00:00 20.9 15 Noroeste 24 Oeste 0 947.3 0.6 68
2019-06-23 09:00:00 19.8 16 Oeste 22 Oeste 0 947.1 0.5 72
2019-06-23 08:00:00 17.6 14 Oeste 24 Oeste 0 946.7 0.2 82
2019-06-23 07:00:00 15.6 16 Oeste 30 Oeste 0 946.7 0 90
2019-06-23 06:00:00 16.3 23 Oeste 32 Oeste 0 946.6 -0.8 91
2019-06-23 05:00:00 15 19 Oeste 28 Oeste 0 946.5 -1.7 90
2019-06-23 04:00:00 15.2 19 Oeste 26 Oeste 0 946.7 -1.8 92
2019-06-23 03:00:00 15.3 19 Oeste 30 Oeste 0 947.4 -1.3 93
2019-06-23 02:00:00 16.2 25 Oeste 33 Oeste 0 948.2 -0.2 91
2019-06-23 01:00:00 15.8 22 Oeste 32 Oeste 0 948.5 0.5 92
2019-06-23 00:00:00 16.3 26 Oeste 35 Oeste 0 948.7 0.9 95
2019-06-22 23:00:00 16.9 27 Oeste 39 Oeste 0 948.4 1 92
2019-06-22 22:00:00 17 28 Noroeste 37 Oeste 0 948 0.7 84
2019-06-22 21:00:00 17.7 28 Oeste 41 Noroeste 0 947.8 0.4 82
2019-06-22 20:00:00 18.2 32 Noroeste 45 Oeste 0 947.4 -0.3 83
2019-06-22 19:00:00 19.8 30 Noroeste 41 Oeste 0 947.3 -0.8 74
2019-06-22 18:00:00 20.7 30 Noroeste 46 Noroeste 0 947.4 -1 70
2019-06-22 17:00:00 21 31 Noroeste 45 Oeste 0 947.7 -1.3 67
2019-06-22 16:00:00 21.4 31 Noroeste 50 Oeste 0 948.1 -1.1 67
2019-06-22 15:00:00 21.9 30 Noroeste 42 Noroeste 0 948.4 -0.9 66
2019-06-22 14:00:00 22 25 Noroeste 35 Oeste 0 949 -0.4 61
2019-06-22 13:00:00 21.7 22 Oeste 37 Noroeste 0 949.2 -0.1 60
2019-06-22 12:00:00 20.7 23 Oeste 35 Oeste 0 949.3 -0.1 64
2019-06-22 11:00:00 19.2 24 Oeste 39 Oeste 0 949.4 0.3 72
2019-06-22 10:00:00 17.7 30 Oeste 37 Oeste 0 949.3 0.7 83
2019-06-22 09:00:00 16.7 23 Oeste 33 Oeste 0 949.4 1.2 85
2019-06-22 08:00:00 15.4 15 Oeste 30 Oeste 0 949.1 1 88
2019-06-22 07:00:00 14.3 21 Oeste 33 Oeste 0 948.6 0.2 95
2019-06-22 06:00:00 15.3 28 Oeste 50 Oeste 0 948.2 -0.4 94
2019-06-22 05:00:00 15.7 32 Noroeste 45 Oeste 0 948.1 -1.1 94
2019-06-22 04:00:00 15.7 30 Oeste 41 Oeste 0 948.4 -1.3 96
2019-06-22 03:00:00 14.7 30 Oeste 42 Oeste 0 948.6 -1.1 93
2019-06-22 02:00:00 14.8 31 Oeste 39 Oeste 0 949.2 -0.3 95
2019-06-22 01:00:00 15.8 29 Oeste 39 Oeste 0 949.7 0.7 93
2019-06-22 00:00:00 16 31 Oeste 45 Noroeste 0 949.7 0.9 93
2019-06-21 23:00:00 16.1 31 Oeste 48 Oeste 0 949.5 0.9 90
2019-06-21 22:00:00 16.4 33 Noroeste 50 Oeste 0 949 0.4 90
2019-06-21 21:00:00 16.7 35 Oeste 50 Oeste 0 948.8 0.1 88
2019-06-21 20:00:00 17.7 32 Noroeste 46 Noroeste 0 948.6 -0.4 79
2019-06-21 19:00:00 19.2 31 Noroeste 50 Noroeste 0 948.6 -0.8 76
2019-06-21 18:00:00 19.7 36 Noroeste 48 Noroeste 0 948.7 -0.8 69
2019-06-21 17:00:00 20.3 33 Noroeste 46 Noroeste 0 949 -0.8 68
2019-06-21 16:00:00 20.6 30 Noroeste 45 Noroeste 0 949.4 -0.5 65
2019-06-21 15:00:00 20.9 29 Noroeste 42 Noroeste 0 949.5 -0.5 63
2019-06-21 14:00:00 20.4 29 Noroeste 42 Noroeste 0 949.8 -0.1 69
2019-06-21 13:00:00 19.8 31 Noroeste 42 Noroeste 0 949.9 -0.2 73
2019-06-21 12:00:00 19.7 30 Noroeste 41 Noroeste 0 950 0.2 77
2019-06-21 11:00:00 18.8 31 Noroeste 48 Oeste 0 949.9 0.5 85
2019-06-21 10:00:00 16.4 31 Noroeste 42 Noroeste 0 950.1 1 96
2019-06-21 09:00:00 16 23 Noroeste 45 Oeste 0.3 949.8 0.8 98
2019-06-21 08:00:00 15.9 26 Noroeste 41 Oeste 0.3 949.4 0.3 98
2019-06-21 07:00:00 15.6 29 Noroeste 46 Oeste 0 949.1 -0.3 97
2019-06-21 06:00:00 16 25 Noroeste 42 Noroeste 0 949 -0.8 95
2019-06-21 05:00:00 16.1 22 Noroeste 42 Oeste 0 949.1 -1 94
2019-06-21 04:00:00 16.3 24 Noroeste 39 Noroeste 0 949.4 -1.2 89
2019-06-21 03:00:00 16.4 26 Noroeste 42 Oeste 0 949.8 -1 93
2019-06-21 02:00:00 16.3 27 Noroeste 37 Noroeste 0 950.1 -0.4 94
2019-06-21 01:00:00 16.3 27 Noroeste 41 Noroeste 0 950.6 0.7 91
2019-06-21 00:00:00 16.7 27 Oeste 42 Oeste 0 950.8 1.5 92
2019-06-20 23:00:00 16.7 27 Noroeste 41 Noroeste 0 950.5 1.6 92
2019-06-20 22:00:00 17 26 Noroeste 42 Norte 0 949.9 1 91
2019-06-20 21:00:00 17.3 26 Noroeste 48 Noroeste 0 949.3 0.1 90
2019-06-20 20:00:00 17.9 33 Noroeste 48 Oeste 0 948.9 -0.2 83
2019-06-20 19:00:00 18.4 31 Noroeste 42 Noroeste 0 948.9 -0.4 83
2019-06-20 18:00:00 19.5 30 Noroeste 48 Noroeste 0 949.2 -0.2 74
2019-06-20 17:00:00 20.5 32 Noroeste 46 Noroeste 0 949.1 -0.5 70
2019-06-20 16:00:00 20.5 30 Noroeste 45 Noroeste 0 949.3 -0.7 69
2019-06-20 15:00:00 20.9 28 Noroeste 42 Noroeste 0 949.4 -0.9 68
2019-06-20 14:00:00 20.6 25 Noroeste 42 Noroeste 0 949.6 -0.6 75
2019-06-20 13:00:00 20.9 28 Noroeste 41 Norte 0 950 0.1 67
2019-06-20 12:00:00 20.3 24 Noroeste 35 Noroeste 0 950.3 0.6 73
2019-06-20 11:00:00 18.7 22 Noroeste 33 Noroeste 0 950.2 0.9 81
2019-06-20 10:00:00 18.9 26 Noroeste 41 Oeste 0 949.9 1.1 82
2019-06-20 09:00:00 16.9 26 Oeste 35 Oeste 0 949.7 1.1 91
2019-06-20 08:00:00 16.2 24 Oeste 42 Noroeste 0 949.3 0.4 94
2019-06-20 07:00:00 15.8 28 Noroeste 41 Noroeste 0 948.8 -0.5 91
2019-06-20 06:00:00 15.9 31 Oeste 42 Noroeste 0 948.6 -1 92
2019-06-20 05:00:00 15.6 24 Oeste 37 Oeste 0 948.9 -1.3 96
2019-06-20 04:00:00 16.3 27 Oeste 39 Noroeste 0 949.3 -1.4 94
2019-06-20 03:00:00 16.4 23 Noroeste 32 Oeste 0 949.6 -0.9 93
2019-06-20 02:00:00 16.6 20 Noroeste 26 Noroeste 0 950.2 -0.2 93
2019-06-20 01:00:00 16.8 15 Noroeste 35 Oeste 0 950.7 0.8 94
2019-06-20 00:00:00 16.9 27 Noroeste 37 Oeste 0 950.5 0.9 91
2019-06-19 23:00:00 17.1 23 Noroeste 32 Noroeste 0 950.4 1.3 90
2019-06-19 22:00:00 17.4 22 Noroeste 33 Oeste 0 949.9 0.9 92
2019-06-19 21:00:00 17.6 22 Noroeste 33 Oeste 0 949.6 0.5 88
2019-06-19 20:00:00 18.4 23 Noroeste 35 Oeste 0 949.1 -0.5 84
2019-06-19 19:00:00 19.6 26 Noroeste 35 Oeste 0 949 -0.7 78
2019-06-19 18:00:00 20.4 23 Oeste 32 Oeste 0 949.1 -0.8 72
2019-06-19 17:00:00 20.7 20 Oeste 35 Noroeste 0 949.6 -0.8 68
2019-06-19 16:00:00 21.2 23 Noroeste 33 Noroeste 0 949.7 -0.6 69
2019-06-19 15:00:00 20.6 23 Noroeste 32 Noroeste 0 949.9 -0.3 71
2019-06-19 14:00:00 21.6 18 Noroeste 33 Norte 0 950.4 0.4 64
2019-06-19 13:00:00 22.6 20 Noroeste 33 Norte 0 950.3 0.9 56
2019-06-19 12:00:00 21.7 19 Noroeste 35 Oeste 0 950.2 1.2 59
2019-06-19 11:00:00 20.7 23 Noroeste 35 Noroeste 0 950 1.1 66
2019-06-19 10:00:00 18.1 18 Noroeste 30 Oeste 0 949.4 0.8 86
2019-06-19 09:00:00 18.1 14 Oeste 22 Noroeste 0 949 0.7 88
2019-06-19 08:00:00 15.8 12 Oeste 17 Oeste 0 948.9 0.6 93
2019-06-19 07:00:00 15.8 12 Oeste 18 Oeste 0 948.6 0.3 94
2019-06-19 06:00:00 16.7 9 Sudoeste 22 Oeste 0 948.3 -0.2 82
2019-06-19 05:00:00 16.4 14 Oeste 24 Oeste 0 948.3 -0.6 97
2019-06-19 04:00:00 16.9 14 Oeste 26 Oeste 0 948.3 -1 96
2019-06-19 03:00:00 16.9 12 Oeste 17 Oeste 0 948.5 -1.1 96
2019-06-19 02:00:00 16.4 10 Oeste 15 Oeste 0 948.9 -0.4 95
2019-06-19 01:00:00 16.9 13 Oeste 18 Oeste 0 949.3 0 91
2019-06-19 00:00:00 17.5 12 Oeste 18 Oeste 0 949.6 0.6 89
2019-06-18 23:00:00 17.9 16 Oeste 21 Noroeste 0 949.3 0.4 82
2019-06-18 22:00:00 18.1 11 Oeste 18 Oeste 0 949.3 0.6 90
2019-06-18 21:00:00 18.2 13 Noroeste 21 Noroeste 0 949 0.3 88
2019-06-18 20:00:00 18.6 12 Noroeste 24 Noroeste 0 948.9 0.2 87
2019-06-18 19:00:00 19.5 12 Noroeste 24 Noroeste 0 948.7 0.1 84
2019-06-18 18:00:00 19.7 9 Norte 22 Este 0 948.7 0 83
2019-06-18 17:00:00 21.8 12 Sudeste 22 Sudeste 0 948.7 -0.3 74
2019-06-18 16:00:00 20.3 4 Sudeste 22 Noroeste 0 948.6 -0.6 79
2019-06-18 15:00:00 21 15 Noroeste 26 Noroeste 0 948.7 -0.6 77
2019-06-18 14:00:00 21.3 18 Noroeste 28 Noroeste 0 949 0 72
2019-06-18 13:00:00 22.5 14 Oeste 30 Norte 0 949.2 0.5 66
2019-06-18 12:00:00 21.5 19 Noroeste 30 Oeste 0 949.3 1 72
2019-06-18 11:00:00 20.9 21 Oeste 30 Oeste 0 949 1.2 73
2019-06-18 10:00:00 21.1 13 Noroeste 22 Noroeste 0 948.7 1.3 72
2019-06-18 09:00:00 19.2 12 Oeste 18 Noroeste 0 948.3 1.2 81
2019-06-18 08:00:00 17.1 14 Oeste 21 Oeste 0 947.8 0.7 91
2019-06-18 07:00:00 16.5 14 Oeste 22 Oeste 0 947.4 0.2 96
2019-06-18 06:00:00 16.4 16 Oeste 22 Oeste 0 947.1 -0.4 94
2019-06-18 05:00:00 15.5 14 Oeste 17 Oeste 0 947.1 -1 88
2019-06-18 04:00:00 16 8 Oeste 21 Oeste 0 947.2 -1.5 79
2019-06-18 03:00:00 16.1 14 Oeste 24 Oeste 0 947.5 -1.4 80
2019-06-18 02:00:00 17.2 16 Oeste 22 Oeste 0 948.1 -0.8 80
2019-06-18 01:00:00 15.7 11 Oeste 17 Oeste 0 948.7 0 96
2019-06-18 00:00:00 16.2 10 Oeste 24 Oeste 0 948.9 0.4 93
2019-06-17 23:00:00 17.5 15 Oeste 21 Oeste 0 948.9 0.6 93
2019-06-17 22:00:00 18.3 14 Oeste 21 Oeste 0 948.7 0.3 89
2019-06-17 21:00:00 19.4 11 Oeste 18 Norte 0 948.5 0.1 83
2019-06-17 20:00:00 20.1 8 Noroeste 17 Noroeste 0 948.3 -0.1 77
2019-06-17 19:00:00 20.6 6 Este 24 Noroeste 0 948.4 -0.3 71
2019-06-17 18:00:00 21.6 13 Noroeste 37 Norte 0 948.4 -0.5 65
2019-06-17 17:00:00 23.4 11 Norte 28 Noroeste 0 948.4 -0.8 59
2019-06-17 16:00:00 23.9 12 Noroeste 22 Oeste 0 948.7 -0.7 59
2019-06-17 15:00:00 22.8 14 Oeste 24 Oeste 0 948.9 -0.5 61
2019-06-17 14:00:00 22.6 14 Oeste 24 Oeste 0 949.2 0 54
2019-06-17 13:00:00 22 10 Este 26 Oeste 0 949.4 0.3 64
2019-06-17 12:00:00 21.7 10 Oeste 26 Oeste 0 949.4 0.6 49
2019-06-17 11:00:00 20.8 13 Noroeste 24 Oeste 0 949.2 0.6 53
2019-06-17 10:00:00 19 15 Noroeste 24 Oeste 0 949.1 0.5 62
2019-06-17 09:00:00 18 12 Noroeste 17 Noroeste 0 948.8 0.1 61
2019-06-17 08:00:00 15.8 12 Oeste 17 Oeste 0 948.6 -0.2 68
2019-06-17 07:00:00 14 0 Calma 17 Oeste 0 948.6 -0.5 80
2019-06-17 06:00:00 12.4 12 Oeste 18 Oeste 0 948.7 -0.8 83
2019-06-17 05:00:00 13.2 12 Oeste 15 Oeste 0 948.8 -1.5 79
2019-06-17 04:00:00 14.3 11 Oeste 18 Oeste 0 949.1 -1.7 75
2019-06-17 03:00:00 13.2 9 Oeste 13 Oeste 0 949.5 -1.7 94
2019-06-17 02:00:00 14.1 6 Sur 18 Oeste 0 950.3 -0.4 92
2019-06-17 01:00:00 13.6 14 Oeste 21 Oeste 0 950.8 0.5 92
2019-06-17 00:00:00 14.4 -- -- -- -- 0 951.2 1.2 94
2019-06-16 23:00:00 14.9 4 Sur 8 Este 0 950.7 0.8 91
2019-06-16 22:00:00 15.4 7 Sudeste 11 Sudeste 0 950.3 0.6 91
2019-06-16 21:00:00 16.3 7 Noroeste 24 Oeste 0 950 0.4 80
2019-06-16 20:00:00 18.2 14 Noroeste 24 Noroeste 0 949.9 0.1 73
2019-06-16 19:00:00 19.5 13 Noroeste 21 Noroeste 0 949.7 -0.2 67
2019-06-16 18:00:00 20 9 Norte 21 Norte 0 949.6 -0.7 68
2019-06-16 17:00:00 19.1 10 Este 26 Este 0 949.8 -0.9 71
2019-06-16 16:00:00 19.4 10 Este 26 Este 0 949.9 -0.9 68
2019-06-16 15:00:00 19.1 16 Este 26 Este 0 950.3 -0.4 69
2019-06-16 14:00:00 19.7 14 Este 26 Este 0 950.7 0.2 68
2019-06-16 13:00:00 18.9 13 Este 26 Este -- 950.8 0.4 71
2019-06-16 12:00:00 18.7 9 Este 21 Este -- 950.7 0.5 72
2019-06-16 11:00:00 18.3 9 Este 21 Norte -- 950.5 0.9 70
2019-06-16 10:00:00 17.3 7 Norte 18 Noroeste -- 950.4 1.1 67
2019-06-16 09:00:00 15.3 10 Noroeste 17 Noroeste -- 950.2 1.1 82
2019-06-16 08:00:00 12.2 8 Oeste 15 Oeste -- 949.6 0.7 90
2019-06-16 07:00:00 11.7 10 Oeste 13 Oeste -- 949.3 0.2 87
2019-06-16 06:00:00 11.6 5 Oeste 8 Oeste -- 949.1 -0.7 96
2019-06-16 05:00:00 11.7 2 Sudoeste 5 Sur -- 948.9 -1.4 96
2019-06-16 04:00:00 12 4 Sur 9 Sudeste -- 949.1 -1.6 95
2019-06-16 03:00:00 12.9 7 Sur 13 Sur -- 949.8 -1.1 95
2019-06-16 02:00:00 12.5 10 Sur 13 Sur -- 950.3 -0.2 93
2019-06-16 01:00:00 12.9 10 Sur 13 Sur -- 950.7 0.8 91
2019-06-16 00:00:00 13 9 Sur 13 Sur -- 950.9 1.4 88
2019-06-15 23:00:00 13.9 8 Sur 11 Sur -- 950.5 1.1 86
2019-06-15 22:00:00 14.3 7 Oeste 15 Oeste -- 949.9 1 78
2019-06-15 21:00:00 15.6 12 Noroeste 21 Noroeste -- 949.5 0.4 73
2019-06-15 20:00:00 17 14 Noroeste 21 Noroeste -- 949.4 0 70
2019-06-15 19:00:00 17.3 3 Noroeste 21 Oeste -- 948.9 -0.7 71
2019-06-15 18:00:00 16.4 6 Sudeste 21 Este -- 949.1 -0.6 78
2019-06-15 17:00:00 17 13 Este 24 Este -- 949.4 -0.7 74
2019-06-15 16:00:00 17.6 8 Sudeste 24 Este -- 949.6 -0.6 71
2019-06-15 15:00:00 18.9 6 Este 24 Sudeste -- 949.7 -0.8 64
2019-06-15 14:00:00 17.5 14 Este 28 Este -- 950.1 -0.1 71
2019-06-15 13:00:00 17.1 15 Este 28 Este -- 950.2 0.5 70
2019-06-15 12:00:00 16.5 17 Este 28 Este -- 950.5 0.9 75
2019-06-15 11:00:00 16.5 12 Este 18 Sudeste -- 950.2 0.7 72
2019-06-15 10:00:00 15.5 10 Este 22 Este -- 949.7 0.6 74
2019-06-15 09:00:00 14.6 9 Este 15 Nordeste -- 949.6 0.7 77
2019-06-15 08:00:00 14 3 Sudeste 22 Este -- 949.5 0.3 90
2019-06-15 07:00:00 13.7 16 Este 22 Este -- 949.1 -0.3 93
2019-06-15 06:00:00 12 6 Sudeste 9 Sudeste -- 948.9 -0.8 86
2019-06-15 05:00:00 12.2 5 Sudoeste 11 Sudoeste -- 949.2 -1.1 83
2019-06-15 04:00:00 12.4 8 Oeste 13 Oeste -- 949.4 -1.3 81
2019-06-15 03:00:00 12.3 5 Oeste 8 Noroeste -- 949.7 -1.1 84
2019-06-15 02:00:00 12.8 0 Calma 8 Este -- 950.3 -0.2 83
2019-06-15 01:00:00 13.2 0 Calma 11 Sudoeste -- 950.7 0.5 81
2019-06-15 00:00:00 13.4 5 Oeste 9 Oeste -- 950.8 1.3 79
2019-06-14 23:00:00 13.3 2 Noroeste 11 Noroeste -- 950.5 1.3 83
2019-06-14 22:00:00 14.2 8 Noroeste 18 Oeste -- 950.2 1.1 77
2019-06-14 21:00:00 15.8 17 Oeste 22 Oeste -- 949.5 0.4 72
2019-06-14 20:00:00 17.8 14 Oeste 24 Oeste -- 949.2 0.1 57
2019-06-14 19:00:00 18.9 16 Oeste 39 Noroeste -- 949.1 0 52
2019-06-14 18:00:00 17.7 11 Este 21 Este -- 949.1 -0.3 68
2019-06-14 17:00:00 17.9 13 Este 24 Este -- 949.1 -0.6 66
2019-06-14 16:00:00 17.9 15 Este 22 Sudeste -- 949.1 -0.8 66
2019-06-14 15:00:00 18.2 13 Este 26 Este -- 949.4 -0.6 62
2019-06-14 14:00:00 18 18 Este 32 Este -- 949.7 -0.1 62
2019-06-14 13:00:00 18.9 6 Noroeste 21 Noroeste -- 949.9 0.3 53
2019-06-14 12:00:00 19 9 Norte 24 Norte -- 950 1.2 52
2019-06-14 11:00:00 17.3 14 Noroeste 28 Nordeste -- 949.8 1.2 56
2019-06-14 10:00:00 17.8 14 Norte 24 Norte -- 949.6 1.2 56
2019-06-14 09:00:00 16.6 8 Norte 15 Norte -- 948.8 0.7 68
2019-06-14 08:00:00 13.9 7 Oeste 17 Oeste -- 948.6 1.1 86
2019-06-14 07:00:00 13.4 10 Oeste 13 Oeste -- 948.4 1.1 87
2019-06-14 06:00:00 12.6 10 Oeste 15 Oeste -- 948.1 0.5 92
2019-06-14 05:00:00 13.2 11 Noroeste 21 Noroeste -- 947.5 -0.8 91
2019-06-14 04:00:00 14.1 15 Noroeste 21 Noroeste -- 947.3 -1.4 89
2019-06-14 03:00:00 14.3 13 Noroeste 18 Oeste -- 947.6 -1.3 89
2019-06-14 02:00:00 14.3 13 Noroeste 21 Oeste -- 948.3 -0.8 92
2019-06-14 01:00:00 14.2 15 Oeste 24 Oeste -- 948.7 0.2 92
2019-06-14 00:00:00 14.1 14 Noroeste 21 Noroeste -- 948.9 1.1 93
2019-06-13 23:00:00 14.2 15 Noroeste 26 Noroeste -- 949.1 1.8 91
2019-06-13 22:00:00 14.3 17 Noroeste 26 Oeste -- 948.5 1.2 87
2019-06-13 21:00:00 15.1 18 Noroeste 30 Oeste -- 947.8 0.8 79
2019-06-13 20:00:00 15.8 21 Noroeste 32 Oeste -- 947.3 0.2 77
2019-06-13 19:00:00 16.2 20 Noroeste 33 Noroeste -- 947.3 0.1 78
2019-06-13 18:00:00 16.4 23 Noroeste 32 Noroeste -- 947 -0.4 76
2019-06-13 17:00:00 17.8 21 Noroeste 32 Noroeste -- 947.1 -0.4 71
2019-06-13 16:00:00 18.6 21 Noroeste 37 Noroeste -- 947.2 -0.4 66
2019-06-13 15:00:00 17.8 25 Noroeste 37 Noroeste -- 947.4 -0.1 67
2019-06-13 14:00:00 18.4 26 Noroeste 37 Oeste -- 947.5 0.4 65
2019-06-13 13:00:00 17.9 24 Noroeste 37 Noroeste -- 947.6 1 71
2019-06-13 12:00:00 16.7 24 Noroeste 33 Noroeste -- 947.5 1.5 72
2019-06-13 11:00:00 16 24 Noroeste 33 Noroeste -- 947.1 1.7 78
2019-06-13 10:00:00 15.1 23 Noroeste 37 Norte -- 946.6 1.5 85
2019-06-13 09:00:00 14.4 27 Noroeste 41 Oeste -- 946 1.1 90
2019-06-13 08:00:00 14.3 29 Noroeste 39 Noroeste -- 945.4 0.7 90
2019-06-13 07:00:00 13.9 30 Noroeste 50 Oeste -- 945.1 0 90
2019-06-13 06:00:00 13.8 35 Noroeste 54 Noroeste -- 944.9 -0.6 89
2019-06-13 05:00:00 13.8 35 Noroeste 46 Oeste -- 944.7 -1.2 96
2019-06-13 04:00:00 14.1 27 Noroeste 41 Oeste -- 945.1 -0.9 89
2019-06-13 03:00:00 13.9 31 Noroeste 42 Oeste -- 945.5 -0.8 90
2019-06-13 02:00:00 14.1 30 Noroeste 59 Oeste -- 945.9 0 87
2019-06-13 01:00:00 14.2 37 Noroeste 52 Oeste -- 946 0.3 92
2019-06-13 00:00:00 14.4 36 Noroeste 48 Oeste -- 946.3 1.2 92
2019-06-12 23:00:00 14.3 34 Noroeste 48 Noroeste -- 945.9 1.3 93
2019-06-12 22:00:00 14.4 33 Noroeste 54 Oeste -- 945.7 1.3 91
2019-06-12 21:00:00 14.6 37 Noroeste 50 Noroeste -- 945.1 0.7 91
2019-06-12 20:00:00 15.2 30 Noroeste 46 Noroeste -- 944.6 -0.3 93
2019-06-12 19:00:00 15.7 38 Noroeste 55 Noroeste -- 944.4 -1 90
2019-06-12 18:00:00 16.4 40 Noroeste 59 Noroeste -- 944.4 -1.4 90
2019-06-12 17:00:00 18.8 38 Noroeste 52 Oeste -- 944.9 -0.9 72
2019-06-12 16:00:00 18.6 34 Noroeste 46 Noroeste -- 945.4 -0.6 73
2019-06-12 15:00:00 17.2 32 Noroeste 50 Noroeste -- 945.8 -0.3 79
2019-06-12 14:00:00 16.8 35 Noroeste 48 Noroeste -- 945.8 0 84
2019-06-12 13:00:00 16.6 30 Noroeste 45 Noroeste -- 946 0.4 91
2019-06-12 12:00:00 15.7 29 Noroeste 48 Noroeste -- 946.1 0.7 99
2019-06-12 11:00:00 15.3 34 Noroeste 48 Noroeste -- 945.8 0.8 100
2019-06-12 10:00:00 15.4 30 Noroeste 45 Oeste 0 945.6 0.8 100
2019-06-12 09:00:00 15.3 28 Noroeste 45 Oeste 0 945.4 0.8 100
2019-06-12 08:00:00 15.1 28 Oeste 45 Oeste 0 945 0.3 100
2019-06-12 07:00:00 14.8 31 Noroeste 45 Noroeste 0 944.8 -0.4 100
2019-06-12 06:00:00 14.7 36 Noroeste 46 Noroeste 0 944.6 -1.3 100
2019-06-12 05:00:00 14.8 31 Noroeste 46 Oeste 0 944.7 -1.5 100
2019-06-12 04:00:00 14.7 33 Oeste 45 Noroeste 0 945.2 -1.6 100
2019-06-12 03:00:00 14.8 23 Noroeste 45 Noroeste 0 945.9 -1.2 100
2019-06-12 02:00:00 15.1 33 Oeste 45 Noroeste 0 946.2 -0.7 100
2019-06-12 01:00:00 14.8 31 Noroeste 52 Oeste 0 946.8 0 99
2019-06-12 00:00:00 15 35 Oeste 54 Oeste 0 947.1 0.6 99
2019-06-11 23:00:00 15 36 Oeste 58 Oeste 0 946.9 0.4 99
2019-06-11 22:00:00 15.1 35 Noroeste 52 Noroeste 0 946.8 0.3 99
2019-06-11 21:00:00 15.4 39 Noroeste 61 Oeste 0 946.5 0.1 98
2019-06-11 20:00:00 15.5 36 Noroeste 58 Oeste 0 946.5 -0.3 99
2019-06-11 19:00:00 15.7 33 Noroeste 58 Noroeste 0 946.5 -0.6 100
2019-06-11 18:00:00 15.8 37 Noroeste 58 Oeste 0 946.4 -1 100
2019-06-11 17:00:00 15.9 37 Noroeste 61 Oeste 0 946.8 -1.2 100
2019-06-11 16:00:00 16 39 Noroeste 58 Noroeste 0 947.1 -1 100
2019-06-11 15:00:00 16.5 41 Noroeste 61 Oeste 0 947.4 -0.8 99
2019-06-11 14:00:00 16.1 40 Noroeste 52 Noroeste 0 948 -0.2 99
2019-06-11 13:00:00 15.9 32 Noroeste 52 Oeste 0 948.1 -0.1 99
2019-06-11 12:00:00 15.7 34 Noroeste 55 Oeste 0 948.2 -0.2 99
2019-06-11 11:00:00 15.3 28 Noroeste 48 Noroeste 0 948.2 -0.2 98
2019-06-11 10:00:00 15 26 Noroeste 55 Oeste 0 948.2 -0.1 97
2019-06-11 09:00:00 14.3 31 Noroeste 55 Oeste 0 948.4 0.4 97
2019-06-11 08:00:00 14 29 Oeste 54 Oeste 0 948.4 -0.1 93
2019-06-11 07:00:00 14 39 Noroeste 52 Noroeste 0 948.3 -0.5 93
2019-06-11 06:00:00 14.1 32 Noroeste 48 Noroeste 0 948 -1.3 94
2019-06-11 05:00:00 14 30 Noroeste 48 Oeste 0 948.5 -1.7 95
2019-06-11 04:00:00 14.4 35 Oeste 46 Oeste 0 948.8 -1.5 91
2019-06-11 03:00:00 14.2 36 Oeste 46 Oeste 0 949.3 -1.4 92
2019-06-11 02:00:00 14.4 28 Oeste 46 Noroeste 0 950.2 -0.1 93
2019-06-11 01:00:00 14.4 36 Oeste 48 Oeste 0 950.3 0.1 92
2019-06-11 00:00:00 14.4 36 Oeste 55 Noroeste 0 950.7 0.9 92
2019-06-10 23:00:00 14.6 40 Noroeste 54 Noroeste 0 950.3 0.5 93
2019-06-10 22:00:00 14.8 37 Noroeste 48 Noroeste 0 950.2 0.4 93
2019-06-10 21:00:00 15.2 37 Noroeste 50 Noroeste 0 949.8 0.1 92
2019-06-10 20:00:00 15.6 35 Noroeste 52 Noroeste 0 949.8 -0.4 86
2019-06-10 19:00:00 16.2 31 Noroeste 55 Noroeste 0 949.8 -0.5 84
2019-06-10 18:00:00 16.4 35 Noroeste 50 Noroeste 0 949.7 -1 83
2019-06-10 17:00:00 17.5 35 Noroeste 52 Oeste 0 950.2 -1.1 74
2019-06-10 16:00:00 18 38 Noroeste 58 Noroeste 0 950.3 -1.3 74
2019-06-10 15:00:00 17.9 35 Noroeste 54 Noroeste 0 950.7 -1.3 74
2019-06-10 14:00:00 18.1 38 Noroeste 55 Noroeste 0 951.3 -1 73
2019-06-10 13:00:00 17.9 37 Noroeste 52 Noroeste 0 951.6 -0.6 76
2019-06-10 12:00:00 16.7 29 Noroeste 46 Noroeste 0 952 -0.1 84
2019-06-10 11:00:00 16.3 29 Noroeste 46 Oeste 0 952.3 0.4 81
2019-06-10 10:00:00 16.2 26 Noroeste 45 Noroeste 0 952.2 0.5 76
2019-06-10 09:00:00 15.2 26 Noroeste 41 Noroeste 0 952.1 0.7 81
2019-06-10 08:00:00 14.7 25 Noroeste 42 Oeste 0 951.9 0.1 89
2019-06-10 07:00:00 14.4 27 Noroeste 42 Noroeste 0 951.7 -0.4 85
2019-06-10 06:00:00 14.2 30 Noroeste 41 Noroeste 0 951.4 -0.8 86
2019-06-10 05:00:00 14.2 24 Noroeste 41 Oeste 0 951.8 -1 84
2019-06-10 04:00:00 14.1 26 Oeste 45 Oeste 0 952.1 -1.1 88
2019-06-10 03:00:00 14.4 32 Noroeste 46 Oeste 0 952.2 -1.1 85
2019-06-10 02:00:00 14.7 24 Oeste 39 Noroeste 0 952.8 -0.2 84
2019-06-10 01:00:00 14.6 27 Noroeste 42 Oeste 0 953.2 0.4 87
2019-06-10 00:00:00 14.5 29 Noroeste 42 Oeste 0 953.3 0.6 86
2019-06-09 23:00:00 14.6 33 Noroeste 46 Noroeste 0 953 0.7 85
2019-06-09 22:00:00 14.8 28 Noroeste 41 Noroeste 0 952.8 0.5 84
2019-06-09 21:00:00 15 30 Noroeste 45 Noroeste 0 952.7 0.7 82
2019-06-09 20:00:00 15.5 29 Noroeste 45 Noroeste 0 952.3 0.3 82
2019-06-09 19:00:00 15.9 32 Noroeste 46 Noroeste 0 952.3 0 78
2019-06-09 18:00:00 18.1 34 Noroeste 52 Noroeste 0 952 -0.4 64
2019-06-09 17:00:00 18.7 39 Noroeste 52 Oeste 0 952 -0.9 58
2019-06-09 16:00:00 19.4 27 Noroeste 42 Noroeste 0 952.3 -1.3 61
2019-06-09 15:00:00 19.3 28 Noroeste 41 Noroeste 0 952.4 -1 64
2019-06-09 14:00:00 18.9 23 Noroeste 41 Noroeste 0 952.9 -0.1 60
2019-06-09 13:00:00 18.6 25 Noroeste 41 Norte 0 953.6 0.8 57
2019-06-09 12:00:00 18.2 17 Norte 37 Norte 0 953.4 0.5 60
2019-06-09 11:00:00 16.3 17 Noroeste 35 Norte 0 953 0.7 73
2019-06-09 10:00:00 16.4 18 Noroeste 35 Oeste 0 952.8 0.9 66
2019-06-09 09:00:00 14.7 18 Noroeste 35 Noroeste 0 952.9 1.2 74
2019-06-09 08:00:00 13.9 17 Noroeste 33 Noroeste 0 952.3 0.5 77
2019-06-09 07:00:00 14.2 19 Noroeste 32 Noroeste 0 951.9 0 83
2019-06-09 06:00:00 13.9 21 Noroeste 32 Noroeste 0 951.7 -0.5 78
2019-06-09 05:00:00 14.1 19 Noroeste 35 Noroeste 0 951.8 -0.7 85
2019-06-09 04:00:00 13.6 22 Noroeste 42 Noroeste 0 951.9 -0.6 84
2019-06-09 03:00:00 14 30 Noroeste 42 Norte 0 952.2 -0.4 81
2019-06-09 02:00:00 14.4 27 Noroeste 45 Norte 0 952.5 0.2 80
2019-06-09 01:00:00 14.5 30 Noroeste 45 Norte 0 952.5 0.7 82
2019-06-09 00:00:00 14.3 31 Noroeste 45 Noroeste 0 952.6 1.1 82
2019-06-08 23:00:00 14.8 30 Noroeste 45 Norte 0 952.3 1.1 82
2019-06-08 22:00:00 15.1 29 Noroeste 46 Norte 0 951.8 0.8 81
2019-06-08 21:00:00 15.4 27 Noroeste 42 Norte 0 951.5 0.8 83
2019-06-08 20:00:00 15.8 27 Noroeste 42 Noroeste 0 951.2 0.4 80
2019-06-08 19:00:00 16.4 26 Noroeste 54 Noroeste 0 951 0.2 79
2019-06-08 18:00:00 16.6 31 Noroeste 54 Noroeste 0 950.7 -0.5 75
2019-06-08 17:00:00 16.6 39 Noroeste 55 Noroeste 0 950.8 -0.4 76
2019-06-08 16:00:00 17.5 37 Noroeste 54 Oeste 0 950.8 -0.5 70
2019-06-08 15:00:00 19.1 31 Noroeste 46 Noroeste 0 951.2 -0.1 59
2019-06-08 14:00:00 19.9 26 Noroeste 48 Noroeste 0 951.2 0.2 55
2019-06-08 13:00:00 19.7 20 Noroeste 35 Noroeste 0 951.3 0.4 62
2019-06-08 12:00:00 19.1 21 Norte 33 Norte 0 951.3 0.6 70
2019-06-08 11:00:00 19 19 Norte 30 Norte 0 951 0.7 70
2019-06-08 10:00:00 16.8 13 Norte 24 Norte 0 950.9 0.8 81
2019-06-08 09:00:00 15.7 16 Noroeste 28 Noroeste 0 950.7 0.8 90
2019-06-08 08:00:00 15.1 16 Oeste 24 Oeste 0 950.3 0.7 94
2019-06-08 07:00:00 15.2 10 Noroeste 18 Norte 0 950.1 0.5 91
2019-06-08 06:00:00 15.4 9 Norte 17 Noroeste 0 949.9 0.3 94
2019-06-08 05:00:00 15.5 7 Noroeste 17 Nordeste 0 949.6 -0.2 96
2019-06-08 04:00:00 15.7 12 Noroeste 24 Norte 0 949.6 -0.4 97
2019-06-08 03:00:00 15.8 17 Noroeste 33 Noroeste 0 949.6 -0.7 98
2019-06-08 02:00:00 15.7 27 Noroeste 39 Noroeste 0 949.8 -0.2 98
2019-06-08 01:00:00 15.8 27 Noroeste 45 Noroeste 0 950 0.6 98
2019-06-08 00:00:00 16 30 Noroeste 41 Noroeste 0 950.3 1 96
2019-06-07 23:00:00 15.8 24 Oeste 33 Oeste 0 950 0.9 92
2019-06-07 22:00:00 16 24 Oeste 37 Oeste 0 949.4 0.3 92
2019-06-07 21:00:00 16.1 26 Oeste 37 Oeste 0 949.3 0.1 92
2019-06-07 20:00:00 16.7 22 Noroeste 30 Noroeste 0 949.1 0.1 89
2019-06-07 19:00:00 17.1 17 Noroeste 30 Noroeste 0 949.1 -0.1 84
2019-06-07 18:00:00 17.1 19 Noroeste 30 Noroeste 0 949.2 -0.2 86
2019-06-07 17:00:00 18.2 15 Noroeste 32 Noroeste 0 949 -0.4 77
2019-06-07 16:00:00 18.1 19 Noroeste 37 Noroeste 0 949.2 -0.3 75
2019-06-07 15:00:00 19.1 24 Noroeste 37 Noroeste 0 949.4 0.2 72
2019-06-07 14:00:00 17.9 23 Noroeste 37 Noroeste 0 949.4 0.4 78
2019-06-07 13:00:00 15.4 27 Noroeste 35 Noroeste 0 949.5 0.4 96
2019-06-07 12:00:00 17.2 21 Oeste 33 Noroeste -- 949.2 0.8 75
2019-06-07 11:00:00 17.9 18 Noroeste 30 Noroeste 0 949 0.9 70
2019-06-07 10:00:00 14.7 17 Noroeste 32 Noroeste 0 949.1 1.5 93
2019-06-07 09:00:00 14.8 19 Noroeste 32 Oeste 0 948.4 1.2 88
2019-06-07 08:00:00 14.3 21 Noroeste 32 Noroeste 0 948.1 1 90
2019-06-07 07:00:00 13.9 29 Oeste 41 Noroeste 0 947.6 0.5 91
2019-06-07 06:00:00 13.9 29 Oeste 42 Oeste 0 947.2 -0.3 90
2019-06-07 05:00:00 14.2 34 Oeste 45 Noroeste 0 947.1 -1.3 87
2019-06-07 04:00:00 14.1 35 Noroeste 48 Oeste 0 947.1 -1.5 87
2019-06-07 03:00:00 13.8 29 Oeste 42 Oeste 0 947.5 -1.2 87
2019-06-07 02:00:00 14.2 35 Noroeste 46 Noroeste 0 948.4 0 88
2019-06-07 01:00:00 14.2 33 Oeste 48 Oeste 0 948.6 0.6 85
2019-06-07 00:00:00 14.5 34 Noroeste 50 Noroeste 0 948.7 0.8 84
2019-06-06 23:00:00 14.6 37 Noroeste 48 Oeste 0 948.4 1.2 82
2019-06-06 22:00:00 14.3 37 Oeste 48 Noroeste 0 948 0.8 81
2019-06-06 21:00:00 14.5 32 Noroeste 46 Oeste 0 947.9 0.7 79
2019-06-06 20:00:00 15.5 34 Noroeste 54 Oeste 0 947.2 -0.1 76
2019-06-06 19:00:00 16.1 44 Noroeste 58 Noroeste 0 947.2 -0.4 72
2019-06-06 18:00:00 16.9 42 Noroeste 58 Oeste 0 947.2 -0.5 70
2019-06-06 17:00:00 17 38 Noroeste 58 Noroeste 0 947.3 -0.9 69
2019-06-06 16:00:00 17.3 37 Noroeste 54 Noroeste 0 947.6 -1 68
2019-06-06 15:00:00 18.3 33 Noroeste 48 Norte 0 947.7 -0.8 58
2019-06-06 14:00:00 17.6 27 Noroeste 42 Norte 0 948.2 -0.3 67
2019-06-06 13:00:00 14.6 20 Noroeste 37 Noroeste 0 948.6 0.5 92
2019-06-06 12:00:00 15.2 27 Noroeste 39 Noroeste 0 948.5 0.8 84
2019-06-06 11:00:00 16.4 27 Noroeste 37 Noroeste 0 948.5 1.1 73
2019-06-06 10:00:00 16.7 21 Noroeste 35 Noroeste 0 948.1 0.8 69
2019-06-06 09:00:00 15.4 24 Noroeste 37 Noroeste 0 947.7 0.5 70
2019-06-06 08:00:00 14.5 23 Noroeste 35 Noroeste 0 947.4 0.2 79
2019-06-06 07:00:00 14.2 23 Noroeste 37 Noroeste 0 947.3 -0.2 81
2019-06-06 06:00:00 14.2 24 Noroeste 37 Norte 0 947.2 -0.6 83
2019-06-06 05:00:00 14.1 21 Noroeste 33 Noroeste 0 947.2 -1 82
2019-06-06 04:00:00 14.4 23 Noroeste 33 Noroeste 0 947.5 -1.3 78
2019-06-06 03:00:00 14.6 23 Noroeste 39 Norte 0 947.8 -1.1 84
2019-06-06 02:00:00 14.9 22 Noroeste 37 Noroeste 0 948.2 -0.7 83
2019-06-06 01:00:00 15.1 22 Noroeste 37 Noroeste 0 948.8 0.2 84
2019-06-06 00:00:00 15.2 23 Noroeste 35 Noroeste 0 948.9 0.6 86
2019-06-05 23:00:00 15.5 24 Noroeste 33 Noroeste 0 948.9 1 83
2019-06-05 22:00:00 15.7 22 Noroeste 35 Norte 0 948.6 0.9 84
2019-06-05 21:00:00 16.2 22 Noroeste 39 Noroeste 0 948.3 0.4 78
2019-06-05 20:00:00 16.8 23 Noroeste 41 Noroeste 0 947.9 -0.3 78
2019-06-05 19:00:00 17.8 26 Noroeste 41 Noroeste 0 947.7 -0.8 76
2019-06-05 18:00:00 19.5 26 Noroeste 39 Norte 0 947.9 -0.8 66
2019-06-05 17:00:00 19.5 24 Noroeste 42 Noroeste 0 948.2 -0.7 67
2019-06-05 16:00:00 20.6 28 Norte 45 Norte 0 948.5 -0.6 61
2019-06-05 15:00:00 21 27 Noroeste 52 Norte 0 948.7 -0.4 55
2019-06-05 14:00:00 20.6 30 Noroeste 46 Norte 0 948.9 -0.2 61
2019-06-05 13:00:00 20.8 27 Noroeste 46 Noroeste 0 949.1 -0.1 60
2019-06-05 12:00:00 20 30 Noroeste 45 Norte 0 949.1 0 65
2019-06-05 11:00:00 19.7 27 Noroeste 42 Norte 0 949.1 0.4 68
2019-06-05 10:00:00 18.7 24 Noroeste 35 Noroeste 0 949.2 0.7 80
2019-06-05 09:00:00 16.9 24 Noroeste 33 Noroeste 0 949.1 0.8 90
2019-06-05 08:00:00 16.2 22 Noroeste 46 Oeste 0 948.7 0.1 92
2019-06-05 07:00:00 15.9 21 Noroeste 42 Oeste 0 948.5 -0.4 96
2019-06-05 06:00:00 15.8 20 Noroeste 45 Noroeste 0 948.3 -0.7 97
2019-06-05 05:00:00 15.5 22 Oeste 41 Oeste 0 948.6 -0.9 97
2019-06-05 04:00:00 15.6 25 Noroeste 46 Noroeste 0 948.9 -1.2 98
2019-06-05 03:00:00 16 37 Noroeste 58 Oeste 0 949 -1.1 98
2019-06-05 02:00:00 16.2 35 Noroeste 46 Noroeste 0 949.5 -0.1 96
2019-06-05 01:00:00 16.5 32 Noroeste 46 Noroeste 0 950.1 0.6 90
2019-06-05 00:00:00 16.2 28 Noroeste 50 Oeste 0 950.1 1.3 92
2019-06-04 23:00:00 16.1 34 Noroeste 48 Noroeste 0 949.6 1 93
2019-06-04 22:00:00 16.1 32 Noroeste 52 Oeste 0 949.5 0.9 93
2019-06-04 21:00:00 16.4 38 Oeste 52 Oeste 0 948.8 0 89
2019-06-04 20:00:00 17 37 Oeste 48 Oeste 0 948.6 -0.3 86
2019-06-04 19:00:00 18.9 37 Oeste 46 Noroeste 0 948.6 -0.3 74
2019-06-04 18:00:00 20.7 33 Oeste 42 Oeste 0 948.8 -0.6 66
2019-06-04 17:00:00 22.2 30 Oeste 42 Oeste 0 948.9 -0.9 56
2019-06-04 16:00:00 22.6 31 Noroeste 41 Oeste 0 948.9 -1.1 49
2019-06-04 15:00:00 21.6 28 Noroeste 39 Noroeste 0 949.4 -0.6 62
2019-06-04 14:00:00 21.6 27 Oeste 37 Oeste 0 949.8 0.2 63
2019-06-04 13:00:00 23 22 Noroeste 32 Noroeste 0 950 0.7 58
2019-06-04 12:00:00 21.7 21 Oeste 30 Oeste 0 950 1.2 64
2019-06-04 11:00:00 21.4 21 Oeste 30 Oeste 0 949.6 1.3 58
2019-06-04 10:00:00 22.2 19 Noroeste 26 Noroeste 0 949.3 1.5 41
2019-06-04 09:00:00 21.1 17 Oeste 28 Oeste 0 948.8 1.4 38
2019-06-04 08:00:00 19.4 18 Oeste 28 Oeste 0 948.3 0.6 40
2019-06-04 07:00:00 18.2 20 Oeste 28 Oeste 0 947.8 -0.3 42
2019-06-04 06:00:00 18.6 19 Oeste 30 Oeste 0 947.4 -1.3 34
2019-06-04 05:00:00 19.1 20 Oeste 28 Oeste 0 947.7 -1.4 33
2019-06-04 04:00:00 19.7 18 Oeste 28 Oeste 0 948.1 -1.5 33
2019-06-04 03:00:00 20 18 Oeste 32 Noroeste 0 948.7 -1.1 30
2019-06-04 02:00:00 21.3 23 Oeste 37 Oeste 0 949.1 -0.4 27
2019-06-04 01:00:00 21.6 24 Oeste 37 Oeste 0 949.6 0.7 24
2019-06-04 00:00:00 22.1 24 Oeste 37 Oeste 0 949.8 1.4 22
2019-06-03 23:00:00 22.4 25 Oeste 37 Noroeste 0 949.5 1.5 24
2019-06-03 22:00:00 21.8 23 Oeste 35 Oeste 0 948.9 1.1 28
2019-06-03 21:00:00 22.1 24 Oeste 33 Oeste 0 948.4 0.4 31
2019-06-03 20:00:00 23.5 24 Oeste 35 Oeste 0 948 0.1 38
2019-06-03 19:00:00 24.1 23 Oeste 35 Oeste 0 947.8 -0.2 40
2019-06-03 18:00:00 25.4 22 Oeste 41 Noroeste 0 948 0 39
2019-06-03 17:00:00 24.7 26 Oeste 41 Oeste 0 947.9 -0.3 49
2019-06-03 16:00:00 26 24 Oeste 37 Oeste 0 948 -0.2 48
2019-06-03 15:00:00 27.6 27 Oeste 42 Oeste 0 948 -0.1 35
2019-06-03 14:00:00 28.2 22 Oeste 37 Oeste 0 948.2 0.4 32
2019-06-03 13:00:00 28 21 Oeste 33 Oeste 0 948.2 0.6 33
2019-06-03 12:00:00 29.5 15 Noroeste 24 Oeste 0 948.1 0.9 28
2019-06-03 11:00:00 29.8 12 Norte 21 Noroeste 0 947.8 0.9 20
2019-06-03 10:00:00 28.7 11 Noroeste 18 Norte 0 947.6 1 21
2019-06-03 09:00:00 26.9 8 Oeste 13 Noroeste 0 947.2 0.5 23
2019-06-03 08:00:00 23.3 6 Sur 15 Sudeste 0 946.9 0.2 27
2019-06-03 07:00:00 22.4 10 Sudeste 18 Sur 0 946.6 -0.6 25
2019-06-03 06:00:00 23 10 Sudeste 18 Sudeste 0 946.7 -0.9 23
2019-06-03 05:00:00 22.6 9 Sudeste 22 Sur 0 946.7 -1.3 24
2019-06-03 04:00:00 23.4 15 Sudeste 30 Sudeste 0 947.2 -1.3 22
2019-06-03 03:00:00 23.6 17 Sudeste 26 Sudeste 0 947.6 -0.9 24
2019-06-03 02:00:00 22.7 13 Sur 22 Sudeste 0 948 0.1 29
2019-06-03 01:00:00 23.8 12 Sudeste 22 Este 0 948.5 1.6 30
2019-06-03 00:00:00 22.6 13 Sur 21 Este 0 948.5 2.3 41
2019-06-02 23:00:00 23.4 5 Sudeste 13 Sudeste 0 947.9 2.3 31
2019-06-02 22:00:00 24.2 6 Sudeste 11 Este 0 946.9 1.7 28
2019-06-02 21:00:00 25.8 5 Sur 9 Sudeste 0 946.2 1.4 32
2019-06-02 20:00:00 28.2 6 Oeste 21 Norte 0 945.6 0.8 25
2019-06-02 19:00:00 30.6 13 Noroeste 22 Noroeste 0 945.2 0.2 20
2019-06-02 18:00:00 31.5 12 Este 22 Este 0 944.8 -0.4 27
2019-06-02 17:00:00 32.3 11 Este 26 Este 0 944.8 -0.8 24
2019-06-02 16:00:00 32.1 15 Este 26 Este 0 945 -0.8 23
2019-06-02 15:00:00 32 14 Este 28 Este 0 945.2 -0.6 23
2019-06-02 14:00:00 31.7 17 Este 30 Este 0 945.6 0.1 19
2019-06-02 13:00:00 31.4 12 Este 26 Este 0 945.8 0.5 18
2019-06-02 12:00:00 30.5 14 Este 26 Este 0 945.8 0.7 18
2019-06-02 11:00:00 29.9 14 Este 26 Este 0 945.5 0.9 14
2019-06-02 10:00:00 28.7 15 Este 22 Este 0 945.3 1 12
2019-06-02 09:00:00 27.4 13 Sudeste 21 Sur 0 945.1 1 13
2019-06-02 08:00:00 24.3 13 Sur 18 Sur 0 944.6 0.4 22
2019-06-02 07:00:00 22.4 13 Sudeste 17 Sudeste 0 944.3 0.2 39
2019-06-02 06:00:00 21.7 10 Sudeste 13 Sur 0 944.1 -0.5 44
2019-06-02 05:00:00 20.6 8 Sudeste 11 Sudeste 0 944.2 -1 50
2019-06-02 04:00:00 20.3 8 Sudeste 11 Sudeste 0 944.1 -1.4 51
2019-06-02 03:00:00 19.3 8 Sudeste 15 Sudeste 0 944.6 -0.7 60
2019-06-02 02:00:00 20.7 9 Sudeste 17 Sur 0 945.2 0.6 60
2019-06-02 01:00:00 19.3 9 Sudeste 22 Sudeste 0 945.5 1.5 64
2019-06-02 00:00:00 14.3 9 Sur 22 Oeste 0 945.3 1.9 97
2019-06-01 23:00:00 15.5 21 Oeste 30 Oeste 0 944.6 1.7 96
2019-06-01 22:00:00 15.9 21 Oeste 33 Oeste 0 944 1.3 95
2019-06-01 21:00:00 16.2 27 Oeste 35 Oeste 0 943.4 0.4 94
2019-06-01 20:00:00 16.8 27 Oeste 33 Oeste 0 942.9 -0.5 91
2019-06-01 19:00:00 19.2 26 Oeste 33 Oeste 0 942.7 -0.8 79
2019-06-01 18:00:00 19.6 27 Oeste 37 Oeste 0 943 -0.9 77
2019-06-01 17:00:00 21.3 22 Noroeste 37 Oeste 0 943.4 -1 71
2019-06-01 16:00:00 21.8 26 Noroeste 41 Oeste 0 943.5 -1.1 70
2019-06-01 15:00:00 20.9 28 Noroeste 39 Oeste 0 943.9 -0.8 74
2019-06-01 14:00:00 22.2 18 Oeste 28 Noroeste 0 944.4 -0.2 68
2019-06-01 13:00:00 22.1 17 Oeste 22 Oeste 0 944.6 0.3 68
2019-06-01 12:00:00 22.4 17 Oeste 24 Oeste 0 944.7 1.3 67
2019-06-01 11:00:00 21.6 7 Este 17 Nordeste 0 944.6 1.4 72
2019-06-01 10:00:00 20 3 Norte 17 Oeste 0 944.3 1.3 77
2019-06-01 09:00:00 15.9 15 Oeste 30 Oeste 0 943.4 0.4 98
2019-06-01 08:00:00 14.4 21 Oeste 30 Oeste 0 943.2 -0.1 98
2019-06-01 07:00:00 13.4 8 Oeste 13 Oeste 0 943 -0.7 93
2019-06-01 06:00:00 13.3 8 Oeste 30 Oeste 0 943 -1 98
2019-06-01 05:00:00 14.1 22 Oeste 33 Oeste 0 943.3 -1 98
2019-06-01 04:00:00 14.6 21 Oeste 32 Oeste 0 943.7 -1.2 97
2019-06-01 03:00:00 17.6 14 Oeste 22 Oeste 0 944 -1.1 60
2019-06-01 02:00:00 17.7 18 Oeste 26 Oeste 0 944.3 -0.2 60
2019-06-01 01:00:00 16.8 19 Oeste 30 Oeste 0 944.9 0.7 65
2019-06-01 00:00:00 14.9 20 Oeste 28 Oeste 0 945.1 1.3 98
2019-05-31 23:00:00 15.2 20 Oeste 32 Oeste 0 944.5 0.8 97
2019-05-31 22:00:00 15.7 23 Oeste 33 Oeste 0 944.2 0.4 96
2019-05-31 21:00:00 16.4 28 Oeste 35 Oeste 0 943.8 -0.2 93
2019-05-31 20:00:00 18.6 29 Oeste 35 Oeste 0 943.7 -0.7 82
2019-05-31 19:00:00 19.5 24 Oeste 39 Oeste 0 943.8 -1.1 77
2019-05-31 18:00:00 20.7 28 Oeste 37 Oeste 0 944 -1 72
2019-05-31 17:00:00 21.1 25 Oeste 33 Noroeste 0 944.4 -0.8 70
2019-05-31 16:00:00 21.6 22 Oeste 30 Oeste 0 944.9 -0.4 68
2019-05-31 15:00:00 23 16 Oeste 28 Oeste 0 945 -0.3 62
2019-05-31 14:00:00 23.5 13 Oeste 21 Oeste 0 945.2 0.1 57
2019-05-31 13:00:00 22.6 14 Oeste 28 Oeste 0 945.3 0.4 60
2019-05-31 12:00:00 20.6 24 Oeste 33 Oeste 0 945.3 0.9 66
2019-05-31 11:00:00 19.7 17 Oeste 28 Oeste 0 945.1 1 69
2019-05-31 10:00:00 17.5 21 Oeste 28 Oeste 0 944.9 0.9 79
2019-05-31 09:00:00 15.4 20 Oeste 30 Oeste 0 944.4 0.3 92
2019-05-31 08:00:00 12.3 10 Oeste 26 Oeste 0 944.1 0 96
2019-05-31 07:00:00 12.9 17 Oeste 30 Oeste 0 944 -0.4 97
2019-05-31 06:00:00 13.6 19 Oeste 30 Oeste 0 944.1 -0.9 97
2019-05-31 05:00:00 13.5 22 Oeste 32 Oeste 0 944.1 -1.3 97
2019-05-31 04:00:00 13.7 23 Oeste 35 Oeste 0 944.4 -1.6 97
2019-05-31 03:00:00 13.6 25 Oeste 33 Oeste 0 945 -1.4 98
2019-05-31 02:00:00 13.4 23 Oeste 30 Oeste 0 945.4 -1 97
2019-05-31 01:00:00 13.8 23 Oeste 33 Oeste 0 946 -0.2 96
2019-05-31 00:00:00 13.9 24 Oeste 35 Oeste 0 946.4 0.7 95
2019-05-30 23:00:00 14.3 25 Oeste 37 Oeste 0 946.4 1.1 94
2019-05-30 22:00:00 14.6 29 Oeste 37 Oeste 0 946.2 1.1 93
2019-05-30 21:00:00 15.1 29 Oeste 39 Oeste 0 945.7 0.4 91
2019-05-30 20:00:00 15.9 30 Oeste 39 Oeste 0 945.3 -0.4 87
2019-05-30 19:00:00 17.4 32 Oeste 45 Oeste 0 945.1 -0.7 80
2019-05-30 18:00:00 18.9 30 Oeste 41 Oeste 0 945.3 -0.9 74
2019-05-30 17:00:00 19.9 28 Noroeste 35 Noroeste 0 945.7 -0.7 70
2019-05-30 16:00:00 21.2 20 Oeste 30 Oeste 0 945.8 -0.8 64
2019-05-30 15:00:00 21.2 14 Oeste 33 Noroeste 0 946.2 -0.3 64
2019-05-30 14:00:00 20.5 17 Oeste 28 Oeste 0 946.4 0.2 66
2019-05-30 13:00:00 20.2 15 Oeste 24 Oeste 0 946.6 0.5 66
2019-05-30 12:00:00 19.3 18 Oeste 30 Oeste 0 946.5 0.8 67
2019-05-30 11:00:00 18.2 24 Oeste 33 Oeste 0 946.2 0.7 73
2019-05-30 10:00:00 16.5 26 Oeste 33 Oeste 0 946.1 0.7 80
2019-05-30 09:00:00 15.1 24 Oeste 33 Oeste 0 945.7 0.6 87
2019-05-30 08:00:00 13.4 22 Oeste 30 Oeste 0 945.5 0.2 96
2019-05-30 07:00:00 12.6 19 Oeste 28 Oeste 0 945.4 0 96
2019-05-30 06:00:00 13 23 Oeste 32 Oeste 0 945.1 -0.9 95
2019-05-30 05:00:00 13.5 24 Oeste 32 Oeste 0 945.3 -1.3 96
2019-05-30 04:00:00 13.4 23 Oeste 32 Oeste 0 945.4 -1.5 95
2019-05-30 03:00:00 13.5 27 Oeste 35 Oeste 0 946 -1.5 94
2019-05-30 02:00:00 13.7 26 Oeste 35 Oeste 0 946.6 -0.7 94
2019-05-30 01:00:00 14.1 26 Oeste 35 Oeste 0 946.9 0 93
2019-05-30 00:00:00 14.1 28 Oeste 37 Oeste 0 947.5 1.1 92
2019-05-29 23:00:00 14.7 27 Oeste 35 Noroeste 0 947.3 1.4 92
2019-05-29 22:00:00 14.8 26 Oeste 35 Oeste 0 946.9 1.2 91
2019-05-29 21:00:00 15 26 Oeste 35 Oeste 0 946.4 0.7 90
2019-05-29 20:00:00 16.6 20 Oeste 32 Noroeste 0 945.9 0.2 81
2019-05-29 19:00:00 18.1 24 Oeste 41 Noroeste 0 945.7 -0.4 75
2019-05-29 18:00:00 19.1 27 Oeste 39 Oeste 0 945.7 -0.8 69
2019-05-29 17:00:00 20.1 25 Oeste 33 Oeste 0 945.7 -1.1 63
2019-05-29 16:00:00 20.2 23 Oeste 35 Oeste 0 946.1 -1.2 62
2019-05-29 15:00:00 20.1 24 Oeste 33 Oeste 0 946.5 -0.7 61
2019-05-29 14:00:00 19.7 26 Oeste 37 Oeste 0 946.8 -0.4 64
2019-05-29 13:00:00 19 24 Oeste 35 Oeste 0 947.3 0.4 69
2019-05-29 12:00:00 18 26 Oeste 41 Oeste 0 947.2 0.4 71
2019-05-29 11:00:00 17.1 29 Oeste 39 Oeste 0 947.2 0.8 76
2019-05-29 10:00:00 16.2 28 Oeste 37 Oeste 0 946.9 0.8 83
2019-05-29 09:00:00 15 29 Oeste 39 Oeste 0 946.8 0.8 91
2019-05-29 08:00:00 14.1 30 Oeste 39 Oeste 0 946.4 0.3 95
2019-05-29 07:00:00 13.9 29 Oeste 35 Oeste 0 946.1 -0.2 95
2019-05-29 06:00:00 13.8 28 Oeste 35 Oeste 0 946 -0.6 94
2019-05-29 05:00:00 14.3 24 Oeste 35 Oeste 0 946.1 -0.8 94
2019-05-29 04:00:00 13.9 23 Oeste 37 Oeste 0 946.3 -0.9 92
2019-05-29 03:00:00 13.9 27 Oeste 41 Oeste 0 946.6 -0.7 91
2019-05-29 02:00:00 14.2 31 Oeste 45 Oeste 0 946.9 -0.1 91
2019-05-29 01:00:00 14.7 33 Oeste 46 Oeste 0 947.2 0.7 92
2019-05-29 00:00:00 14.9 34 Oeste 46 Oeste 0 947.3 1 91
2019-05-28 23:00:00 14.8 36 Oeste 48 Oeste 0 947 1 90
2019-05-28 22:00:00 15.1 37 Noroeste 46 Noroeste 0 946.5 0.7 91
2019-05-28 21:00:00 15.4 35 Oeste 46 Noroeste 0 946.3 0.3 89
2019-05-28 20:00:00 15.9 33 Oeste 46 Oeste 0 946 0 87
2019-05-28 19:00:00 17.1 33 Oeste 45 Oeste 0 945.8 -0.4 82
2019-05-28 18:00:00 18.9 30 Oeste 46 Oeste 0 946 -0.4 73
2019-05-28 17:00:00 19.1 35 Oeste 45 Oeste 0 946 -0.5 74
2019-05-28 16:00:00 19.8 28 Oeste 39 Oeste 0 946.2 -0.4 68
2019-05-28 15:00:00 19.1 29 Oeste 42 Oeste 0 946.4 -0.4 74
2019-05-28 14:00:00 18.8 32 Oeste 42 Oeste 0 946.5 -0.1 75
2019-05-28 13:00:00 19.1 30 Oeste 42 Oeste 0 946.6 0.2 74
2019-05-28 12:00:00 18.4 31 Oeste 41 Oeste 0 946.8 0.6 77
2019-05-28 11:00:00 18 29 Oeste 39 Oeste 0 946.6 0.7 79
2019-05-28 10:00:00 17.4 27 Oeste 33 Oeste 0 946.4 0.7 81
2019-05-28 09:00:00 15.6 24 Oeste 32 Oeste 0 946.2 1 94
2019-05-28 08:00:00 15 24 Oeste 32 Oeste 0 945.9 0.8 96
2019-05-28 07:00:00 14.9 23 Oeste 33 Oeste 0 945.7 0.5 96
2019-05-28 06:00:00 15 21 Oeste 32 Oeste 0 945.2 -0.3 97
2019-05-28 05:00:00 14.8 23 Oeste 33 Oeste 0 945.1 -0.8 97
2019-05-28 04:00:00 14.9 21 Oeste 32 Oeste 0 945.2 -0.8 97
2019-05-28 03:00:00 14.6 21 Oeste 30 Oeste 0 945.5 -0.5 95
2019-05-28 02:00:00 14.9 23 Oeste 37 Oeste 0 945.9 -0.1 96
2019-05-28 01:00:00 14.4 21 Oeste 33 Oeste 0 946 0.5 94
2019-05-28 00:00:00 15.1 28 Oeste 39 Oeste 0 946 0.7 90
2019-05-27 23:00:00 15.7 28 Oeste 39 Oeste 0 946 0.9 92
2019-05-27 22:00:00 15.6 33 Oeste 45 Oeste 0 945.5 0.4 90
2019-05-27 21:00:00 15.8 27 Oeste 37 Oeste 0 945.3 -0.1 89
2019-05-27 20:00:00 16.6 29 Oeste 37 Oeste 0 945.1 -0.6 87
2019-05-27 19:00:00 18.6 28 Oeste 37 Oeste 0 945.1 -0.6 79
2019-05-27 18:00:00 20.8 19 Oeste -- -- -- 945.4 -0.2 67
2019-05-27 17:00:00 21.5 20 Oeste 32 Oeste 0 945.7 0 62
2019-05-27 16:00:00 21.8 22 Oeste 32 Oeste 0 945.7 -0.2 63
2019-05-27 15:00:00 24.3 20 Noroeste 30 Noroeste 0 945.6 -0.4 47
2019-05-27 14:00:00 25.1 17 Noroeste 28 Norte 0 945.7 -0.2 45
2019-05-27 13:00:00 26.3 15 Norte 32 Nordeste 0 945.9 0.2 29
2019-05-27 12:00:00 24.2 12 Noroeste 22 Noroeste 0 946 0.7 46
2019-05-27 11:00:00 21.8 10 Oeste 22 Oeste 0 945.9 0.8 60
2019-05-27 10:00:00 19.1 15 Oeste 21 Oeste 0 945.7 0.8 73
2019-05-27 09:00:00 17.9 15 Oeste 18 Oeste 0 945.3 0.7 77
2019-05-27 08:00:00 17.8 9 Oeste 17 Oeste 0 945.1 0.3 54
2019-05-27 07:00:00 15.5 3 Sudoeste 8 Norte 0 944.9 -0.4 61
2019-05-27 06:00:00 15.3 2 Sudeste 5 Sudeste 0 944.6 -1.1 65
2019-05-27 05:00:00 14.9 0 Calma 22 Oeste 0 944.8 -1.4 70
2019-05-27 04:00:00 13.9 17 Oeste 26 Oeste 0 945.3 -1.3 95
2019-05-27 03:00:00 13.9 19 Oeste 30 Oeste 0 945.7 -1 96
2019-05-27 02:00:00 14.1 19 Oeste 26 Oeste 0 946.2 -0.4 96
2019-05-27 01:00:00 14.2 19 Oeste 30 Oeste 0 946.6 0.5 95
2019-05-27 00:00:00 14.3 22 Oeste 30 Oeste 0 946.7 0.9 95